sensor_id;sensor_type;location;lat;lon;timestamp;P1;durP1;ratioP1;P2;durP2;ratioP2
5612;SDS011;63463;53.586;9.928;2023-02-28T00:00:10;5.87;;;5.40;;
5612;SDS011;63463;53.586;9.928;2023-02-28T00:02:37;6.40;;;5.33;;
5612;SDS011;63463;53.586;9.928;2023-02-28T00:05:04;6.90;;;5.40;;
5612;SDS011;63463;53.586;9.928;2023-02-28T00:07:30;8.87;;;5.30;;
5612;SDS011;63463;53.586;9.928;2023-02-28T00:09:57;6.03;;;5.43;;
5612;SDS011;63463;53.586;9.928;2023-02-28T00:12:24;5.90;;;5.40;;
5612;SDS011;63463;53.586;9.928;2023-02-28T00:14:50;5.60;;;5.30;;
5612;SDS011;63463;53.586;9.928;2023-02-28T00:17:16;6.17;;;5.70;;
5612;SDS011;63463;53.586;9.928;2023-02-28T00:19:46;5.60;;;5.30;;
5612;SDS011;63463;53.586;9.928;2023-02-28T00:22:12;5.93;;;5.43;;
5612;SDS011;63463;53.586;9.928;2023-02-28T00:24:38;7.93;;;5.93;;
5612;SDS011;63463;53.586;9.928;2023-02-28T00:27:04;7.50;;;5.30;;
5612;SDS011;63463;53.586;9.928;2023-02-28T00:29:30;5.33;;;4.90;;
5612;SDS011;63463;53.586;9.928;2023-02-28T00:31:56;5.30;;;5.00;;
5612;SDS011;63463;53.586;9.928;2023-02-28T00:34:22;5.40;;;5.10;;
5612;SDS011;63463;53.586;9.928;2023-02-28T00:36:48;7.20;;;5.27;;
5612;SDS011;63463;53.586;9.928;2023-02-28T00:39:14;5.43;;;5.13;;
5612;SDS011;63463;53.586;9.928;2023-02-28T00:41:40;6.67;;;5.20;;
5612;SDS011;63463;53.586;9.928;2023-02-28T00:44:06;5.90;;;5.50;;
5612;SDS011;63463;53.586;9.928;2023-02-28T00:46:32;6.17;;;5.63;;
5612;SDS011;63463;53.586;9.928;2023-02-28T00:48:58;5.60;;;5.10;;
5612;SDS011;63463;53.586;9.928;2023-02-28T00:51:24;5.70;;;5.20;;
5612;SDS011;63463;53.586;9.928;2023-02-28T00:53:50;5.80;;;5.40;;
5612;SDS011;63463;53.586;9.928;2023-02-28T00:56:16;5.57;;;5.20;;
5612;SDS011;63463;53.586;9.928;2023-02-28T00:58:42;6.33;;;5.80;;
5612;SDS011;63463;53.586;9.928;2023-02-28T01:01:09;5.73;;;5.33;;
5612;SDS011;63463;53.586;9.928;2023-02-28T01:03:35;6.73;;;5.40;;
5612;SDS011;63463;53.586;9.928;2023-02-28T01:06:01;5.90;;;5.60;;
5612;SDS011;63463;53.586;9.928;2023-02-28T01:08:27;5.87;;;5.37;;
5612;SDS011;63463;53.586;9.928;2023-02-28T01:10:53;9.50;;;5.97;;
5612;SDS011;63463;53.586;9.928;2023-02-28T01:13:19;5.73;;;5.33;;
5612;SDS011;63463;53.586;9.928;2023-02-28T01:15:49;6.93;;;5.37;;
5612;SDS011;63463;53.586;9.928;2023-02-28T01:18:19;13.47;;;5.60;;
5612;SDS011;63463;53.586;9.928;2023-02-28T01:20:45;5.70;;;5.40;;
5612;SDS011;63463;53.586;9.928;2023-02-28T01:23:11;6.27;;;5.80;;
5612;SDS011;63463;53.586;9.928;2023-02-28T01:25:37;8.20;;;5.63;;
5612;SDS011;63463;53.586;9.928;2023-02-28T01:28:04;6.03;;;5.70;;
5612;SDS011;63463;53.586;9.928;2023-02-28T01:30:30;11.63;;;6.13;;
5612;SDS011;63463;53.586;9.928;2023-02-28T01:32:57;6.87;;;5.73;;
5612;SDS011;63463;53.586;9.928;2023-02-28T01:35:23;6.40;;;5.67;;
5612;SDS011;63463;53.586;9.928;2023-02-28T01:37:49;5.70;;;5.40;;
5612;SDS011;63463;53.586;9.928;2023-02-28T01:40:15;6.13;;;5.60;;
5612;SDS011;63463;53.586;9.928;2023-02-28T01:42:41;5.73;;;5.33;;
5612;SDS011;63463;53.586;9.928;2023-02-28T01:45:24;6.20;;;5.63;;
5612;SDS011;63463;53.586;9.928;2023-02-28T01:47:52;6.67;;;6.07;;
5612;SDS011;63463;53.586;9.928;2023-02-28T01:50:20;7.10;;;5.83;;
5612;SDS011;63463;53.586;9.928;2023-02-28T01:52:47;8.67;;;5.90;;
5612;SDS011;63463;53.586;9.928;2023-02-28T01:55:14;6.00;;;5.50;;
5612;SDS011;63463;53.586;9.928;2023-02-28T01:57:42;6.50;;;5.90;;
5612;SDS011;63463;53.586;9.928;2023-02-28T02:00:13;7.10;;;6.37;;
5612;SDS011;63463;53.586;9.928;2023-02-28T02:02:41;6.77;;;6.20;;
5612;SDS011;63463;53.586;9.928;2023-02-28T02:05:09;6.23;;;5.63;;
5612;SDS011;63463;53.586;9.928;2023-02-28T02:07:36;10.50;;;6.03;;
5612;SDS011;63463;53.586;9.928;2023-02-28T02:12:41;6.17;;;5.63;;
5612;SDS011;63463;53.586;9.928;2023-02-28T02:15:15;6.70;;;6.10;;
5612;SDS011;63463;53.586;9.928;2023-02-28T02:17:43;6.30;;;5.90;;
5612;SDS011;63463;53.586;9.928;2023-02-28T02:25:35;7.77;;;7.07;;
5612;SDS011;63463;53.586;9.928;2023-02-28T02:33:03;8.07;;;7.00;;
5612;SDS011;63463;53.586;9.928;2023-02-28T02:38:19;8.57;;;7.60;;
5612;SDS011;63463;53.586;9.928;2023-02-28T02:40:58;9.13;;;7.50;;
5612;SDS011;63463;53.586;9.928;2023-02-28T02:43:32;10.00;;;7.57;;
5612;SDS011;63463;53.586;9.928;2023-02-28T02:46:04;17.10;;;8.43;;
5612;SDS011;63463;53.586;9.928;2023-02-28T02:48:32;17.17;;;8.30;;
5612;SDS011;63463;53.586;9.928;2023-02-28T02:51:01;11.80;;;8.30;;
5612;SDS011;63463;53.586;9.928;2023-02-28T02:53:30;15.60;;;8.40;;
5612;SDS011;63463;53.586;9.928;2023-02-28T02:55:58;14.57;;;8.37;;
5612;SDS011;63463;53.586;9.928;2023-02-28T02:58:26;23.10;;;9.53;;
5612;SDS011;63463;53.586;9.928;2023-02-28T03:00:54;33.37;;;11.53;;
5612;SDS011;63463;53.586;9.928;2023-02-28T03:03:22;25.00;;;11.70;;
5612;SDS011;63463;53.586;9.928;2023-02-28T03:05:55;18.70;;;10.77;;
5612;SDS011;63463;53.586;9.928;2023-02-28T03:08:21;24.47;;;11.03;;
5612;SDS011;63463;53.586;9.928;2023-02-28T03:10:51;22.20;;;11.40;;
5612;SDS011;63463;53.586;9.928;2023-02-28T03:21:09;30.27;;;13.27;;
5612;SDS011;63463;53.586;9.928;2023-02-28T03:23:59;34.10;;;13.27;;
5612;SDS011;63463;53.586;9.928;2023-02-28T03:26:28;35.00;;;14.67;;
5612;SDS011;63463;53.586;9.928;2023-02-28T03:31:29;24.73;;;12.70;;
5612;SDS011;63463;53.586;9.928;2023-02-28T03:34:17;38.33;;;14.13;;
5612;SDS011;63463;53.586;9.928;2023-02-28T03:36:46;35.23;;;14.17;;
5612;SDS011;63463;53.586;9.928;2023-02-28T03:39:25;43.07;;;17.60;;
5612;SDS011;63463;53.586;9.928;2023-02-28T03:41:54;69.13;;;21.57;;
5612;SDS011;63463;53.586;9.928;2023-02-28T03:44:35;56.10;;;20.53;;
5612;SDS011;63463;53.586;9.928;2023-02-28T03:47:05;68.50;;;21.93;;
5612;SDS011;63463;53.586;9.928;2023-02-28T03:49:40;48.07;;;20.13;;
5612;SDS011;63463;53.586;9.928;2023-02-28T03:52:08;54.17;;;20.83;;
5612;SDS011;63463;53.586;9.928;2023-02-28T03:54:36;53.33;;;19.63;;
5612;SDS011;63463;53.586;9.928;2023-02-28T03:59:43;33.13;;;15.20;;
5612;SDS011;63463;53.586;9.928;2023-02-28T04:02:10;42.67;;;16.13;;
5612;SDS011;63463;53.586;9.928;2023-02-28T04:04:36;41.10;;;15.40;;
5612;SDS011;63463;53.586;9.928;2023-02-28T04:07:03;39.87;;;15.63;;
5612;SDS011;63463;53.586;9.928;2023-02-28T04:09:30;37.00;;;14.87;;
5612;SDS011;63463;53.586;9.928;2023-02-28T04:11:56;44.00;;;15.00;;
5612;SDS011;63463;53.586;9.928;2023-02-28T04:14:22;27.70;;;14.67;;
5612;SDS011;63463;53.586;9.928;2023-02-28T04:16:48;34.47;;;16.33;;
5612;SDS011;63463;53.586;9.928;2023-02-28T04:19:16;30.17;;;15.87;;
5612;SDS011;63463;53.586;9.928;2023-02-28T04:21:46;38.40;;;16.33;;
5612;SDS011;63463;53.586;9.928;2023-02-28T04:24:13;35.43;;;16.77;;
5612;SDS011;63463;53.586;9.928;2023-02-28T04:26:40;53.87;;;17.83;;
5612;SDS011;63463;53.586;9.928;2023-02-28T04:29:08;50.40;;;18.57;;
5612;SDS011;63463;53.586;9.928;2023-02-28T04:31:34;35.67;;;15.77;;
5612;SDS011;63463;53.586;9.928;2023-02-28T04:34:01;34.60;;;15.43;;
5612;SDS011;63463;53.586;9.928;2023-02-28T04:36:27;40.73;;;16.90;;
5612;SDS011;63463;53.586;9.928;2023-02-28T04:38:53;43.70;;;15.83;;
5612;SDS011;63463;53.586;9.928;2023-02-28T04:41:19;42.07;;;16.43;;
5612;SDS011;63463;53.586;9.928;2023-02-28T04:43:45;33.67;;;15.30;;
5612;SDS011;63463;53.586;9.928;2023-02-28T04:46:11;39.63;;;16.37;;
5612;SDS011;63463;53.586;9.928;2023-02-28T04:48:38;37.03;;;16.70;;
5612;SDS011;63463;53.586;9.928;2023-02-28T04:51:08;37.90;;;15.27;;
5612;SDS011;63463;53.586;9.928;2023-02-28T04:53:36;36.73;;;15.60;;
5612;SDS011;63463;53.586;9.928;2023-02-28T04:56:02;32.70;;;16.20;;
5612;SDS011;63463;53.586;9.928;2023-02-28T04:58:28;40.47;;;16.80;;
5612;SDS011;63463;53.586;9.928;2023-02-28T05:00:56;34.40;;;15.33;;
5612;SDS011;63463;53.586;9.928;2023-02-28T05:03:26;32.03;;;14.47;;
5612;SDS011;63463;53.586;9.928;2023-02-28T05:05:52;32.20;;;13.23;;
5612;SDS011;63463;53.586;9.928;2023-02-28T05:08:18;29.87;;;13.03;;
5612;SDS011;63463;53.586;9.928;2023-02-28T05:10:44;27.67;;;12.90;;
5612;SDS011;63463;53.586;9.928;2023-02-28T05:13:13;27.87;;;14.43;;
5612;SDS011;63463;53.586;9.928;2023-02-28T05:15:39;28.40;;;13.50;;
5612;SDS011;63463;53.586;9.928;2023-02-28T05:18:05;21.83;;;12.40;;
5612;SDS011;63463;53.586;9.928;2023-02-28T05:20:31;26.23;;;13.57;;
5612;SDS011;63463;53.586;9.928;2023-02-28T05:22:57;32.37;;;15.50;;
5612;SDS011;63463;53.586;9.928;2023-02-28T05:25:25;24.00;;;13.37;;
5612;SDS011;63463;53.586;9.928;2023-02-28T05:27:51;23.03;;;12.60;;
5612;SDS011;63463;53.586;9.928;2023-02-28T05:30:17;20.17;;;11.63;;
5612;SDS011;63463;53.586;9.928;2023-02-28T05:32:43;16.87;;;11.80;;
5612;SDS011;63463;53.586;9.928;2023-02-28T05:35:09;29.10;;;10.40;;
5612;SDS011;63463;53.586;9.928;2023-02-28T05:37:36;17.47;;;10.70;;
5612;SDS011;63463;53.586;9.928;2023-02-28T05:40:03;14.43;;;10.90;;
5612;SDS011;63463;53.586;9.928;2023-02-28T05:42:35;45.47;;;11.80;;
5612;SDS011;63463;53.586;9.928;2023-02-28T05:45:01;19.33;;;10.13;;
5612;SDS011;63463;53.586;9.928;2023-02-28T05:47:27;22.73;;;10.83;;
5612;SDS011;63463;53.586;9.928;2023-02-28T05:49:53;17.40;;;10.03;;
5612;SDS011;63463;53.586;9.928;2023-02-28T05:52:19;15.17;;;9.77;;
5612;SDS011;63463;53.586;9.928;2023-02-28T05:54:46;17.17;;;10.17;;
5612;SDS011;63463;53.586;9.928;2023-02-28T05:57:12;12.83;;;9.50;;
5612;SDS011;63463;53.586;9.928;2023-02-28T05:59:38;15.63;;;10.20;;
5612;SDS011;63463;53.586;9.928;2023-02-28T06:02:04;14.43;;;10.10;;
5612;SDS011;63463;53.586;9.928;2023-02-28T06:04:30;16.30;;;10.10;;
5612;SDS011;63463;53.586;9.928;2023-02-28T06:06:56;13.10;;;9.30;;
5612;SDS011;63463;53.586;9.928;2023-02-28T06:09:22;10.80;;;9.77;;
5612;SDS011;63463;53.586;9.928;2023-02-28T06:11:49;14.47;;;9.70;;
5612;SDS011;63463;53.586;9.928;2023-02-28T06:14:17;14.13;;;9.80;;
5612;SDS011;63463;53.586;9.928;2023-02-28T06:16:44;16.27;;;10.50;;
5612;SDS011;63463;53.586;9.928;2023-02-28T06:19:10;16.20;;;10.33;;
5612;SDS011;63463;53.586;9.928;2023-02-28T06:21:36;14.00;;;9.83;;
5612;SDS011;63463;53.586;9.928;2023-02-28T06:24:03;21.67;;;10.47;;
5612;SDS011;63463;53.586;9.928;2023-02-28T06:26:29;21.00;;;11.20;;
5612;SDS011;63463;53.586;9.928;2023-02-28T06:28:55;13.57;;;9.77;;
5612;SDS011;63463;53.586;9.928;2023-02-28T06:31:22;13.43;;;9.30;;
5612;SDS011;63463;53.586;9.928;2023-02-28T06:33:49;17.90;;;10.27;;
5612;SDS011;63463;53.586;9.928;2023-02-28T06:36:15;11.80;;;9.93;;
5612;SDS011;63463;53.586;9.928;2023-02-28T06:38:42;13.90;;;10.23;;
5612;SDS011;63463;53.586;9.928;2023-02-28T06:41:09;18.07;;;10.53;;
5612;SDS011;63463;53.586;9.928;2023-02-28T06:43:36;14.77;;;10.97;;
5612;SDS011;63463;53.586;9.928;2023-02-28T06:46:03;15.83;;;10.20;;
5612;SDS011;63463;53.586;9.928;2023-02-28T06:48:30;18.87;;;10.47;;
5612;SDS011;63463;53.586;9.928;2023-02-28T06:51:09;12.83;;;10.10;;
5612;SDS011;63463;53.586;9.928;2023-02-28T06:53:36;19.83;;;11.33;;
5612;SDS011;63463;53.586;9.928;2023-02-28T06:56:09;24.97;;;11.47;;
5612;SDS011;63463;53.586;9.928;2023-02-28T06:58:36;19.93;;;11.43;;
5612;SDS011;63463;53.586;9.928;2023-02-28T07:01:03;13.53;;;10.97;;
5612;SDS011;63463;53.586;9.928;2023-02-28T07:03:29;28.97;;;10.83;;
5612;SDS011;63463;53.586;9.928;2023-02-28T07:05:55;17.83;;;10.87;;
5612;SDS011;63463;53.586;9.928;2023-02-28T07:08:22;26.57;;;11.77;;
5612;SDS011;63463;53.586;9.928;2023-02-28T07:10:52;20.87;;;11.83;;
5612;SDS011;63463;53.586;9.928;2023-02-28T07:13:18;16.40;;;11.20;;
5612;SDS011;63463;53.586;9.928;2023-02-28T07:15:52;18.90;;;12.53;;
5612;SDS011;63463;53.586;9.928;2023-02-28T07:18:18;19.43;;;12.10;;
5612;SDS011;63463;53.586;9.928;2023-02-28T07:20:44;16.67;;;11.43;;
5612;SDS011;63463;53.586;9.928;2023-02-28T07:23:10;23.40;;;12.33;;
5612;SDS011;63463;53.586;9.928;2023-02-28T07:25:36;17.80;;;11.07;;
5612;SDS011;63463;53.586;9.928;2023-02-28T07:28:04;20.70;;;11.50;;
5612;SDS011;63463;53.586;9.928;2023-02-28T07:30:31;20.40;;;11.70;;
5612;SDS011;63463;53.586;9.928;2023-02-28T07:32:59;15.50;;;11.30;;
5612;SDS011;63463;53.586;9.928;2023-02-28T07:35:26;17.20;;;12.07;;
5612;SDS011;63463;53.586;9.928;2023-02-28T07:37:52;36.63;;;12.20;;
5612;SDS011;63463;53.586;9.928;2023-02-28T07:40:21;13.00;;;9.90;;
5612;SDS011;63463;53.586;9.928;2023-02-28T07:42:47;22.70;;;10.30;;
5612;SDS011;63463;53.586;9.928;2023-02-28T07:45:13;28.23;;;10.53;;
5612;SDS011;63463;53.586;9.928;2023-02-28T07:47:39;13.13;;;9.70;;
5612;SDS011;63463;53.586;9.928;2023-02-28T07:50:06;20.23;;;9.83;;
5612;SDS011;63463;53.586;9.928;2023-02-28T07:52:32;19.43;;;10.50;;
5612;SDS011;63463;53.586;9.928;2023-02-28T07:54:58;20.20;;;11.00;;
5612;SDS011;63463;53.586;9.928;2023-02-28T07:57:24;13.40;;;9.70;;
5612;SDS011;63463;53.586;9.928;2023-02-28T07:59:51;10.23;;;9.10;;
5612;SDS011;63463;53.586;9.928;2023-02-28T08:02:17;18.13;;;9.53;;
5612;SDS011;63463;53.586;9.928;2023-02-28T08:04:43;21.23;;;9.50;;
5612;SDS011;63463;53.586;9.928;2023-02-28T08:07:14;16.30;;;9.57;;
5612;SDS011;63463;53.586;9.928;2023-02-28T08:09:44;14.00;;;10.00;;
5612;SDS011;63463;53.586;9.928;2023-02-28T08:12:11;9.17;;;8.23;;
5612;SDS011;63463;53.586;9.928;2023-02-28T08:14:37;13.00;;;8.70;;
5612;SDS011;63463;53.586;9.928;2023-02-28T08:17:04;23.53;;;7.93;;
5612;SDS011;63463;53.586;9.928;2023-02-28T08:19:31;12.67;;;8.30;;
5612;SDS011;63463;53.586;9.928;2023-02-28T08:21:57;7.60;;;6.93;;
5612;SDS011;63463;53.586;9.928;2023-02-28T08:24:23;7.33;;;6.60;;
5612;SDS011;63463;53.586;9.928;2023-02-28T08:26:49;8.43;;;6.60;;
5612;SDS011;63463;53.586;9.928;2023-02-28T08:29:16;7.20;;;6.53;;
5612;SDS011;63463;53.586;9.928;2023-02-28T08:31:42;6.80;;;6.20;;
5612;SDS011;63463;53.586;9.928;2023-02-28T08:34:08;7.10;;;6.40;;
5612;SDS011;63463;53.586;9.928;2023-02-28T08:36:36;11.10;;;6.00;;
5612;SDS011;63463;53.586;9.928;2023-02-28T08:39:02;6.70;;;6.20;;
5612;SDS011;63463;53.586;9.928;2023-02-28T08:41:28;6.20;;;5.73;;
5612;SDS011;63463;53.586;9.928;2023-02-28T08:43:54;6.10;;;5.50;;
5612;SDS011;63463;53.586;9.928;2023-02-28T08:46:20;6.20;;;5.70;;
5612;SDS011;63463;53.586;9.928;2023-02-28T08:48:47;6.70;;;6.20;;
5612;SDS011;63463;53.586;9.928;2023-02-28T08:51:14;6.07;;;5.57;;
5612;SDS011;63463;53.586;9.928;2023-02-28T08:53:46;5.60;;;5.40;;
5612;SDS011;63463;53.586;9.928;2023-02-28T08:56:14;6.10;;;5.80;;
5612;SDS011;63463;53.586;9.928;2023-02-28T08:58:41;5.70;;;5.40;;
5612;SDS011;63463;53.586;9.928;2023-02-28T09:01:09;5.77;;;5.50;;
5612;SDS011;63463;53.586;9.928;2023-02-28T09:03:35;5.80;;;5.40;;
5612;SDS011;63463;53.586;9.928;2023-02-28T09:06:01;5.00;;;4.90;;
5612;SDS011;63463;53.586;9.928;2023-02-28T09:08:28;4.60;;;4.50;;
5612;SDS011;63463;53.586;9.928;2023-02-28T09:10:59;9.50;;;4.50;;
5612;SDS011;63463;53.586;9.928;2023-02-28T09:13:31;6.73;;;6.10;;
5612;SDS011;63463;53.586;9.928;2023-02-28T09:15:59;5.67;;;5.27;;
5612;SDS011;63463;53.586;9.928;2023-02-28T09:18:25;4.73;;;4.43;;
5612;SDS011;63463;53.586;9.928;2023-02-28T09:20:52;4.20;;;4.00;;
5612;SDS011;63463;53.586;9.928;2023-02-28T09:23:18;4.50;;;4.30;;
5612;SDS011;63463;53.586;9.928;2023-02-28T09:25:45;4.60;;;4.50;;
5612;SDS011;63463;53.586;9.928;2023-02-28T09:28:12;4.93;;;4.53;;
5612;SDS011;63463;53.586;9.928;2023-02-28T09:30:40;4.90;;;4.70;;
5612;SDS011;63463;53.586;9.928;2023-02-28T09:33:07;4.80;;;4.60;;
5612;SDS011;63463;53.586;9.928;2023-02-28T09:35:33;5.07;;;4.87;;
5612;SDS011;63463;53.586;9.928;2023-02-28T09:37:59;4.93;;;4.50;;
5612;SDS011;63463;53.586;9.928;2023-02-28T09:40:27;4.30;;;4.20;;
5612;SDS011;63463;53.586;9.928;2023-02-28T09:42:55;4.73;;;4.53;;
5612;SDS011;63463;53.586;9.928;2023-02-28T09:47:51;4.97;;;4.50;;
5612;SDS011;63463;53.586;9.928;2023-02-28T09:50:32;4.50;;;4.30;;
5612;SDS011;63463;53.586;9.928;2023-02-28T09:52:59;4.73;;;4.50;;
5612;SDS011;63463;53.586;9.928;2023-02-28T09:55:29;4.40;;;4.30;;
5612;SDS011;63463;53.586;9.928;2023-02-28T09:57:56;5.00;;;4.60;;
5612;SDS011;63463;53.586;9.928;2023-02-28T10:00:28;4.70;;;4.50;;
5612;SDS011;63463;53.586;9.928;2023-02-28T10:05:43;4.53;;;4.27;;
5612;SDS011;63463;53.586;9.928;2023-02-28T10:08:18;3.93;;;3.73;;
5612;SDS011;63463;53.586;9.928;2023-02-28T10:10:50;5.30;;;4.83;;
5612;SDS011;63463;53.586;9.928;2023-02-28T10:15:45;4.43;;;4.13;;
5612;SDS011;63463;53.586;9.928;2023-02-28T10:18:14;5.07;;;4.10;;
5612;SDS011;63463;53.586;9.928;2023-02-28T10:20:41;4.23;;;4.07;;
5612;SDS011;63463;53.586;9.928;2023-02-28T10:25:35;4.20;;;4.10;;
5612;SDS011;63463;53.586;9.928;2023-02-28T10:28:12;4.53;;;4.23;;
5612;SDS011;63463;53.586;9.928;2023-02-28T10:30:41;4.00;;;3.80;;
5612;SDS011;63463;53.586;9.928;2023-02-28T10:33:12;4.30;;;4.10;;
5612;SDS011;63463;53.586;9.928;2023-02-28T10:35:42;4.20;;;4.10;;
5612;SDS011;63463;53.586;9.928;2023-02-28T10:38:12;4.50;;;4.10;;
5612;SDS011;63463;53.586;9.928;2023-02-28T10:40:40;4.57;;;4.30;;
5612;SDS011;63463;53.586;9.928;2023-02-28T10:43:24;3.80;;;3.70;;
5612;SDS011;63463;53.586;9.928;2023-02-28T10:48:38;4.03;;;3.90;;
5612;SDS011;63463;53.586;9.928;2023-02-28T10:51:05;4.53;;;4.23;;
5612;SDS011;63463;53.586;9.928;2023-02-28T10:58:29;4.17;;;3.97;;
5612;SDS011;63463;53.586;9.928;2023-02-28T11:00:56;4.40;;;4.17;;
5612;SDS011;63463;53.586;9.928;2023-02-28T11:03:29;3.90;;;3.80;;
5612;SDS011;63463;53.586;9.928;2023-02-28T11:05:55;4.07;;;3.83;;
5612;SDS011;63463;53.586;9.928;2023-02-28T11:08:21;4.40;;;4.10;;
5612;SDS011;63463;53.586;9.928;2023-02-28T11:10:53;4.50;;;4.10;;
5612;SDS011;63463;53.586;9.928;2023-02-28T11:13:21;4.40;;;4.00;;
5612;SDS011;63463;53.586;9.928;2023-02-28T11:15:55;8.20;;;3.90;;
5612;SDS011;63463;53.586;9.928;2023-02-28T11:20:49;4.10;;;3.90;;
5612;SDS011;63463;53.586;9.928;2023-02-28T11:23:16;4.70;;;4.23;;
5612;SDS011;63463;53.586;9.928;2023-02-28T11:25:49;5.00;;;3.93;;
5612;SDS011;63463;53.586;9.928;2023-02-28T11:28:29;4.70;;;4.17;;
5612;SDS011;63463;53.586;9.928;2023-02-28T11:31:05;4.83;;;3.70;;
5612;SDS011;63463;53.586;9.928;2023-02-28T11:33:44;8.93;;;4.20;;
5612;SDS011;63463;53.586;9.928;2023-02-28T11:36:12;4.00;;;3.80;;
5612;SDS011;63463;53.586;9.928;2023-02-28T11:38:38;4.17;;;3.83;;
5612;SDS011;63463;53.586;9.928;2023-02-28T11:41:07;4.00;;;3.90;;
5612;SDS011;63463;53.586;9.928;2023-02-28T11:51:35;5.27;;;4.10;;
5612;SDS011;63463;53.586;9.928;2023-02-28T11:56:44;5.77;;;4.17;;
5612;SDS011;63463;53.586;9.928;2023-02-28T12:04:17;5.50;;;4.30;;
5612;SDS011;63463;53.586;9.928;2023-02-28T12:07:32;6.33;;;4.60;;
5612;SDS011;63463;53.586;9.928;2023-02-28T12:09:37;4.20;;;4.00;;
5612;SDS011;63463;53.586;9.928;2023-02-28T12:17:17;9.03;;;4.30;;
5612;SDS011;63463;53.586;9.928;2023-02-28T12:19:52;4.83;;;4.50;;
5612;SDS011;63463;53.586;9.928;2023-02-28T12:27:43;4.83;;;4.43;;
5612;SDS011;63463;53.586;9.928;2023-02-28T12:30:26;5.73;;;4.50;;
5612;SDS011;63463;53.586;9.928;2023-02-28T12:32:57;4.70;;;4.50;;
5612;SDS011;63463;53.586;9.928;2023-02-28T12:38:15;4.90;;;4.50;;
5612;SDS011;63463;53.586;9.928;2023-02-28T12:43:11;5.93;;;4.40;;
5612;SDS011;63463;53.586;9.928;2023-02-28T12:45:43;4.53;;;4.30;;
5612;SDS011;63463;53.586;9.928;2023-02-28T12:48:21;5.00;;;4.50;;
5612;SDS011;63463;53.586;9.928;2023-02-28T12:50:49;5.27;;;4.77;;
5612;SDS011;63463;53.586;9.928;2023-02-28T12:53:34;4.80;;;4.50;;
5612;SDS011;63463;53.586;9.928;2023-02-28T12:56:21;9.90;;;4.70;;
5612;SDS011;63463;53.586;9.928;2023-02-28T12:58:56;5.17;;;4.63;;
5612;SDS011;63463;53.586;9.928;2023-02-28T13:07:32;5.00;;;4.70;;
5612;SDS011;63463;53.586;9.928;2023-02-28T13:10:04;4.97;;;4.73;;
5612;SDS011;63463;53.586;9.928;2023-02-28T13:12:34;4.90;;;4.30;;
5612;SDS011;63463;53.586;9.928;2023-02-28T13:15:08;5.47;;;5.07;;
5612;SDS011;63463;53.586;9.928;2023-02-28T13:17:38;5.73;;;4.97;;
5612;SDS011;63463;53.586;9.928;2023-02-28T13:20:31;4.90;;;4.60;;
5612;SDS011;63463;53.586;9.928;2023-02-28T13:22:55;6.87;;;5.07;;
5612;SDS011;63463;53.586;9.928;2023-02-28T13:27:51;6.23;;;4.90;;
5612;SDS011;63463;53.586;9.928;2023-02-28T13:38:59;9.43;;;4.80;;
5612;SDS011;63463;53.586;9.928;2023-02-28T13:44:05;7.83;;;5.10;;
5612;SDS011;63463;53.586;9.928;2023-02-28T13:46:33;4.80;;;4.50;;
5612;SDS011;63463;53.586;9.928;2023-02-28T13:49:24;6.10;;;5.13;;
5612;SDS011;63463;53.586;9.928;2023-02-28T13:51:47;5.20;;;4.90;;
5612;SDS011;63463;53.586;9.928;2023-02-28T13:54:16;7.10;;;5.20;;
5612;SDS011;63463;53.586;9.928;2023-02-28T13:56:57;5.10;;;4.80;;
5612;SDS011;63463;53.586;9.928;2023-02-28T14:02:25;5.17;;;4.60;;
5612;SDS011;63463;53.586;9.928;2023-02-28T14:04:58;5.13;;;4.87;;
5612;SDS011;63463;53.586;9.928;2023-02-28T14:07:26;4.87;;;4.67;;
5612;SDS011;63463;53.586;9.928;2023-02-28T14:09:57;5.33;;;4.83;;
5612;SDS011;63463;53.586;9.928;2023-02-28T14:17:55;6.27;;;5.57;;
5612;SDS011;63463;53.586;9.928;2023-02-28T14:20:24;5.93;;;5.30;;
5612;SDS011;63463;53.586;9.928;2023-02-28T14:23:03;5.97;;;5.20;;
5612;SDS011;63463;53.586;9.928;2023-02-28T14:29:14;5.30;;;5.00;;
5612;SDS011;63463;53.586;9.928;2023-02-28T14:31:39;5.30;;;4.87;;
5612;SDS011;63463;53.586;9.928;2023-02-28T14:36:53;5.27;;;4.97;;
5612;SDS011;63463;53.586;9.928;2023-02-28T14:39:23;5.60;;;5.20;;
5612;SDS011;63463;53.586;9.928;2023-02-28T14:41:50;5.37;;;5.07;;
5612;SDS011;63463;53.586;9.928;2023-02-28T14:44:26;7.13;;;4.67;;
5612;SDS011;63463;53.586;9.928;2023-02-28T14:47:02;5.70;;;5.30;;
5612;SDS011;63463;53.586;9.928;2023-02-28T14:49:35;5.77;;;5.03;;
5612;SDS011;63463;53.586;9.928;2023-02-28T14:52:12;7.03;;;5.30;;
5612;SDS011;63463;53.586;9.928;2023-02-28T14:54:40;5.80;;;5.30;;
5612;SDS011;63463;53.586;9.928;2023-02-28T14:57:06;5.53;;;5.13;;
5612;SDS011;63463;53.586;9.928;2023-02-28T14:59:46;6.00;;;5.60;;
5612;SDS011;63463;53.586;9.928;2023-02-28T15:04:51;7.90;;;5.50;;
5612;SDS011;63463;53.586;9.928;2023-02-28T15:07:21;5.53;;;4.97;;
5612;SDS011;63463;53.586;9.928;2023-02-28T15:12:35;5.73;;;5.23;;
5612;SDS011;63463;53.586;9.928;2023-02-28T15:15:04;5.23;;;4.83;;
5612;SDS011;63463;53.586;9.928;2023-02-28T15:17:32;6.30;;;5.30;;
5612;SDS011;63463;53.586;9.928;2023-02-28T15:19:59;6.13;;;5.50;;
5612;SDS011;63463;53.586;9.928;2023-02-28T15:22:35;5.00;;;4.80;;
5612;SDS011;63463;53.586;9.928;2023-02-28T15:25:02;6.40;;;5.67;;
5612;SDS011;63463;53.586;9.928;2023-02-28T15:27:29;5.23;;;4.93;;
5612;SDS011;63463;53.586;9.928;2023-02-28T15:30:00;5.40;;;4.90;;
5612;SDS011;63463;53.586;9.928;2023-02-28T15:32:34;6.23;;;5.40;;
5612;SDS011;63463;53.586;9.928;2023-02-28T15:37:53;6.13;;;5.63;;
5612;SDS011;63463;53.586;9.928;2023-02-28T15:40:24;5.30;;;5.00;;
5612;SDS011;63463;53.586;9.928;2023-02-28T15:43:13;6.27;;;5.23;;
5612;SDS011;63463;53.586;9.928;2023-02-28T15:45:49;8.70;;;5.70;;
5612;SDS011;63463;53.586;9.928;2023-02-28T15:48:20;5.63;;;5.13;;
5612;SDS011;63463;53.586;9.928;2023-02-28T15:50:48;5.90;;;5.50;;
5612;SDS011;63463;53.586;9.928;2023-02-28T15:53:19;5.73;;;5.30;;
5612;SDS011;63463;53.586;9.928;2023-02-28T15:55:51;6.60;;;5.90;;
5612;SDS011;63463;53.586;9.928;2023-02-28T15:58:19;5.93;;;5.53;;
5612;SDS011;63463;53.586;9.928;2023-02-28T16:00:59;5.53;;;5.23;;
5612;SDS011;63463;53.586;9.928;2023-02-28T16:03:26;7.30;;;5.73;;
5612;SDS011;63463;53.586;9.928;2023-02-28T16:06:07;5.67;;;5.27;;
5612;SDS011;63463;53.586;9.928;2023-02-28T16:08:34;6.50;;;5.90;;
5612;SDS011;63463;53.586;9.928;2023-02-28T16:11:00;5.17;;;4.87;;
5612;SDS011;63463;53.586;9.928;2023-02-28T16:13:26;6.90;;;6.40;;
5612;SDS011;63463;53.586;9.928;2023-02-28T16:15:52;6.10;;;5.50;;
5612;SDS011;63463;53.586;9.928;2023-02-28T16:18:19;6.80;;;5.30;;
5612;SDS011;63463;53.586;9.928;2023-02-28T16:20:45;6.37;;;5.70;;
5612;SDS011;63463;53.586;9.928;2023-02-28T16:23:11;7.23;;;5.23;;
5612;SDS011;63463;53.586;9.928;2023-02-28T16:25:41;6.13;;;5.47;;
5612;SDS011;63463;53.586;9.928;2023-02-28T16:28:08;5.40;;;5.20;;
5612;SDS011;63463;53.586;9.928;2023-02-28T16:30:38;6.83;;;5.80;;
5612;SDS011;63463;53.586;9.928;2023-02-28T16:33:04;5.90;;;5.37;;
5612;SDS011;63463;53.586;9.928;2023-02-28T16:35:30;6.00;;;5.50;;
5612;SDS011;63463;53.586;9.928;2023-02-28T16:37:56;7.50;;;5.00;;
5612;SDS011;63463;53.586;9.928;2023-02-28T16:40:23;6.93;;;6.07;;
5612;SDS011;63463;53.586;9.928;2023-02-28T16:42:51;7.93;;;5.97;;
5612;SDS011;63463;53.586;9.928;2023-02-28T16:45:19;5.60;;;5.27;;
5612;SDS011;63463;53.586;9.928;2023-02-28T16:47:46;5.90;;;5.43;;
5612;SDS011;63463;53.586;9.928;2023-02-28T16:50:18;9.33;;;5.90;;
5612;SDS011;63463;53.586;9.928;2023-02-28T16:52:44;7.93;;;5.73;;
5612;SDS011;63463;53.586;9.928;2023-02-28T16:55:11;6.57;;;5.97;;
5612;SDS011;63463;53.586;9.928;2023-02-28T16:57:37;12.27;;;5.67;;
5612;SDS011;63463;53.586;9.928;2023-02-28T17:00:05;6.07;;;5.53;;
5612;SDS011;63463;53.586;9.928;2023-02-28T17:02:33;6.50;;;5.90;;
5612;SDS011;63463;53.586;9.928;2023-02-28T17:04:59;6.17;;;5.70;;